createdAt,value
2018-05-24T00:01:34.826Z,99.90
2018-05-24T00:04:01.191Z,99.90
2018-05-24T00:06:27.864Z,99.90
2018-05-24T00:08:54.214Z,99.90
2018-05-24T00:11:20.518Z,99.90
2018-05-24T00:13:46.852Z,99.90
2018-05-24T00:16:13.188Z,99.90
2018-05-24T00:18:40.230Z,99.90
2018-05-24T00:21:07.321Z,99.90
2018-05-24T00:23:33.656Z,99.90
2018-05-24T00:26:00.033Z,99.90
2018-05-24T00:28:26.413Z,99.90
2018-05-24T00:30:52.764Z,99.90
2018-05-24T00:33:19.727Z,99.90
2018-05-24T00:35:46.917Z,99.90
2018-05-24T00:38:13.574Z,99.90
2018-05-24T00:40:39.923Z,99.90
2018-05-24T00:43:06.323Z,99.90
2018-05-24T00:45:33.685Z,99.90
2018-05-24T00:48:00.051Z,99.90
2018-05-24T00:50:26.393Z,99.90
2018-05-24T00:52:52.747Z,99.90
2018-05-24T00:55:45.459Z,99.90
2018-05-24T00:58:11.787Z,99.90
2018-05-24T01:00:38.126Z,99.90
2018-05-24T01:03:04.487Z,99.90
2018-05-24T01:05:30.829Z,99.90
2018-05-24T01:07:57.185Z,99.90
2018-05-24T01:10:24.253Z,99.90
2018-05-24T01:12:50.547Z,99.90
2018-05-24T01:15:16.894Z,99.90
2018-05-24T01:17:44.015Z,99.90
2018-05-24T01:20:10.465Z,99.90
2018-05-24T01:22:37.590Z,99.90
2018-05-24T01:25:03.923Z,99.90
2018-05-24T01:27:30.284Z,99.90
2018-05-24T01:29:56.639Z,99.90
2018-05-24T01:32:22.986Z,99.90
2018-05-24T01:34:49.303Z,99.90
2018-05-24T01:37:27.761Z,99.90
2018-05-24T01:39:54.096Z,99.90
2018-05-24T01:42:20.458Z,99.90
2018-05-24T01:44:46.838Z,99.90
2018-05-24T01:47:13.224Z,99.90
2018-05-24T01:49:40.240Z,99.90
2018-05-24T01:52:06.608Z,99.90
2018-05-24T01:54:32.932Z,99.90
2018-05-24T01:57:00.014Z,99.90
2018-05-24T01:59:26.336Z,99.90
2018-05-24T02:01:52.646Z,99.90
2018-05-24T02:04:20.031Z,99.90
2018-05-24T02:06:46.352Z,99.90
2018-05-24T02:09:12.711Z,99.90
2018-05-24T02:11:39.714Z,99.90
2018-05-24T02:14:06.782Z,99.90
2018-05-24T02:16:33.156Z,99.90
2018-05-24T02:18:59.504Z,99.90
2018-05-24T02:21:26.576Z,99.90
2018-05-24T02:23:52.897Z,99.90
2018-05-24T02:26:19.237Z,99.90
2018-05-24T02:28:46.388Z,99.90
2018-05-24T02:31:12.784Z,99.90
2018-05-24T02:33:39.098Z,99.90
2018-05-24T02:36:05.688Z,99.90
2018-05-24T02:38:32.602Z,99.90
2018-05-24T02:40:58.925Z,99.90
2018-05-24T02:43:25.270Z,99.90
2018-05-24T02:45:51.606Z,99.90
2018-05-24T02:48:17.987Z,99.90
2018-05-24T02:50:44.374Z,99.90
2018-05-24T02:53:11.484Z,99.90
2018-05-24T02:55:37.766Z,99.90
2018-05-24T02:58:04.105Z,99.90
2018-05-24T03:00:30.406Z,99.90
2018-05-24T03:02:56.769Z,99.90
2018-05-24T03:05:23.862Z,99.90
2018-05-24T03:07:50.178Z,99.90
2018-05-24T03:10:16.513Z,99.90
2018-05-24T03:12:43.693Z,99.90
2018-05-24T03:15:10.799Z,99.90
2018-05-24T03:17:37.795Z,99.90
2018-05-24T03:20:04.126Z,99.90
2018-05-24T03:22:31.274Z,99.90
2018-05-24T03:24:57.863Z,99.90
2018-05-24T03:27:24.234Z,99.90
2018-05-24T03:29:50.648Z,99.90
2018-05-24T03:32:17.193Z,99.90
2018-05-24T03:34:43.538Z,99.90
2018-05-24T03:37:09.848Z,99.90
2018-05-24T03:39:36.207Z,99.90
2018-05-24T03:42:02.560Z,99.90
2018-05-24T03:44:29.636Z,99.90
2018-05-24T03:46:55.947Z,99.90
2018-05-24T03:49:22.299Z,99.90
2018-05-24T03:51:48.614Z,99.90
2018-05-24T03:54:15.684Z,99.90
2018-05-24T03:56:42.070Z,99.90
2018-05-24T04:02:21.127Z,99.90
2018-05-24T04:04:52.224Z,99.90
2018-05-24T04:07:18.549Z,99.90
2018-05-24T04:09:45.183Z,99.90
2018-05-24T04:12:11.596Z,99.90
2018-05-24T04:14:38.658Z,99.90
2018-05-24T04:17:05.110Z,99.90
2018-05-24T04:19:31.432Z,99.90
2018-05-24T04:21:57.816Z,99.90
2018-05-24T04:24:24.150Z,99.90
2018-05-24T04:26:51.246Z,99.90
2018-05-24T04:29:18.576Z,99.90
2018-05-24T04:31:45.704Z,99.90
2018-05-24T04:34:12.729Z,99.90
2018-05-24T04:36:39.130Z,99.90
2018-05-24T04:39:05.440Z,99.90
2018-05-24T04:41:31.713Z,99.90
2018-05-24T04:43:58.080Z,99.90
2018-05-24T04:46:25.164Z,99.90
2018-05-24T04:48:51.500Z,99.90
2018-05-24T04:51:17.775Z,99.90
2018-05-24T04:53:44.057Z,99.90
2018-05-24T04:56:10.592Z,99.90
2018-05-24T04:58:37.093Z,99.90
2018-05-24T05:01:04.203Z,99.90
2018-05-24T05:03:30.472Z,99.90
2018-05-24T05:05:56.760Z,99.90
2018-05-24T05:08:24.091Z,99.90
2018-05-24T05:10:51.372Z,99.90
2018-05-24T05:13:17.656Z,99.90
2018-05-24T05:15:45.213Z,99.90
2018-05-24T05:18:12.276Z,99.90
2018-05-24T05:20:38.546Z,99.90
2018-05-24T05:23:05.022Z,99.90
2018-05-24T05:25:32.004Z,99.90
2018-05-24T05:27:58.323Z,99.90
2018-05-24T05:30:24.598Z,99.90
2018-05-24T05:32:50.948Z,99.80
2018-05-24T05:35:18.410Z,99.30
2018-05-24T05:37:45.440Z,98.80
2018-05-24T05:40:11.717Z,98.80
2018-05-24T05:42:38.009Z,98.60
2018-05-24T05:45:04.298Z,97.30
2018-05-24T05:47:30.810Z,96.30
2018-05-24T05:49:57.079Z,93.70
2018-05-24T05:52:23.448Z,95.50
2018-05-24T05:54:49.670Z,96.90
2018-05-24T05:57:15.989Z,96.80
2018-05-24T05:59:42.395Z,97.90
2018-05-24T06:02:08.672Z,98.10
2018-05-24T06:04:34.942Z,98.60
2018-05-24T06:07:01.282Z,97.50
2018-05-24T06:09:27.558Z,97.40
2018-05-24T06:11:54.560Z,97.60
2018-05-24T06:14:20.836Z,97.60
2018-05-24T06:16:47.832Z,97.30
2018-05-24T06:19:14.088Z,97.30
2018-05-24T06:21:40.389Z,95.00
2018-05-24T06:24:06.671Z,92.70
2018-05-24T06:26:33.726Z,83.40
2018-05-24T06:29:00.017Z,83.40
2018-05-24T06:31:26.294Z,83.00
2018-05-24T06:33:53.344Z,81.30
2018-05-24T06:36:19.630Z,81.40
2018-05-24T06:38:45.917Z,77.90
2018-05-24T06:41:12.206Z,81.40
2018-05-24T06:43:38.498Z,81.90
2018-05-24T06:46:04.782Z,82.60
2018-05-24T06:48:31.086Z,80.90
2018-05-24T06:50:57.360Z,82.80
2018-05-24T06:53:23.648Z,83.30
2018-05-24T06:55:49.934Z,83.70
2018-05-24T06:58:16.199Z,81.90
2018-05-24T07:00:42.464Z,85.70
2018-05-24T07:03:09.489Z,89.10
2018-05-24T07:05:35.800Z,89.10
2018-05-24T07:08:03.090Z,89.70
2018-05-24T07:10:30.198Z,91.10
2018-05-24T07:12:56.570Z,91.10
2018-05-24T07:15:22.840Z,92.40
2018-05-24T07:17:49.130Z,91.90
2018-05-24T07:20:16.152Z,92.30
2018-05-24T07:22:42.422Z,92.30
2018-05-24T07:25:08.694Z,92.00
2018-05-24T07:27:34.962Z,92.90
2018-05-24T07:30:01.225Z,93.30
2018-05-24T07:32:27.506Z,93.70
2018-05-24T07:34:53.824Z,93.20
2018-05-24T07:37:20.214Z,92.30
2018-05-24T07:39:59.369Z,92.40
2018-05-24T07:42:29.162Z,91.00
2018-05-24T07:45:08.487Z,83.50
2018-05-24T07:57:09.452Z,62.00
2018-05-24T07:59:55.978Z,59.30
2018-05-24T08:02:29.388Z,56.20
2018-05-24T08:05:07.478Z,59.00
2018-05-24T08:07:45.656Z,58.90
2018-05-24T08:10:24.752Z,61.90
2018-05-24T08:12:52.631Z,60.70
2018-05-24T08:18:17.427Z,58.90
2018-05-24T08:23:39.168Z,56.80
2018-05-24T08:26:10.314Z,56.70
2018-05-24T08:28:39.756Z,56.60
2018-05-24T08:31:09.548Z,55.50
2018-05-24T08:33:35.896Z,55.60
2018-05-24T08:36:02.286Z,52.40
2018-05-24T08:38:29.316Z,55.10
2018-05-24T08:40:56.367Z,55.80
2018-05-24T08:43:22.665Z,58.70
2018-05-24T08:45:50.404Z,58.50
2018-05-24T08:48:17.389Z,59.00
2018-05-24T08:50:43.730Z,58.60
2018-05-24T08:53:10.118Z,56.40
2018-05-24T08:55:36.439Z,56.30
2018-05-24T08:58:02.786Z,55.70
2018-05-24T09:00:30.048Z,53.70
2018-05-24T09:02:56.352Z,52.80
2018-05-24T09:05:24.216Z,49.30
2018-05-24T09:07:52.151Z,48.90
2018-05-24T09:10:20.501Z,52.80
2018-05-24T09:25:42.644Z,49.20
2018-05-24T09:28:08.918Z,49.20
2018-05-24T09:30:35.173Z,48.60
2018-05-24T09:33:01.466Z,48.00
2018-05-24T09:35:27.733Z,46.80
2018-05-24T09:37:54.774Z,51.40
2018-05-24T09:40:21.060Z,51.30
2018-05-24T09:42:48.064Z,50.80
2018-05-24T09:45:14.334Z,50.90
2018-05-24T09:47:41.354Z,52.40
2018-05-24T09:50:07.626Z,52.40
2018-05-24T09:52:34.636Z,52.10
2018-05-24T09:55:00.921Z,51.40
2018-05-24T09:57:27.187Z,50.80
2018-05-24T09:59:53.468Z,51.60
2018-05-24T10:02:19.739Z,48.00
2018-05-24T10:04:46.075Z,50.10
2018-05-24T10:07:12.447Z,52.60
2018-05-24T10:09:39.515Z,52.80
2018-05-24T10:12:06.064Z,52.80
2018-05-24T10:14:32.393Z,51.30
2018-05-24T10:16:58.666Z,50.90
2018-05-24T10:19:24.961Z,50.50
2018-05-24T10:21:51.222Z,51.90
2018-05-24T10:24:17.503Z,49.30
2018-05-24T10:26:43.773Z,51.30
2018-05-24T10:29:10.043Z,54.10
2018-05-24T10:31:36.322Z,52.50
2018-05-24T10:34:02.621Z,50.10
2018-05-24T10:36:28.892Z,48.80
2018-05-24T10:38:55.220Z,49.40
2018-05-24T10:41:21.495Z,48.90
2018-05-24T10:43:47.780Z,49.50
2018-05-24T10:46:14.819Z,49.20
2018-05-24T10:48:41.095Z,49.10
2018-05-24T10:51:07.366Z,49.40
2018-05-24T10:53:33.656Z,49.80
2018-05-24T10:55:59.983Z,50.80
2018-05-24T10:58:26.216Z,50.30
2018-05-24T11:00:52.515Z,53.00
2018-05-24T11:03:18.810Z,54.60
2018-05-24T11:05:45.101Z,54.40
2018-05-24T11:08:11.382Z,57.60
2018-05-24T11:10:37.664Z,57.10
2018-05-24T11:13:03.931Z,59.40
2018-05-24T11:15:30.227Z,58.90
2018-05-24T11:17:56.499Z,61.10
2018-05-24T11:20:22.773Z,60.90
2018-05-24T11:22:49.155Z,62.40
2018-05-24T11:25:15.511Z,63.90
2018-05-24T11:27:41.763Z,62.50
2018-05-24T11:30:08.065Z,62.70
2018-05-24T11:32:35.131Z,64.10
2018-05-24T11:35:02.168Z,63.30
2018-05-24T11:37:29.215Z,65.90
2018-05-24T11:39:56.299Z,65.60
2018-05-24T11:42:22.595Z,65.50
2018-05-24T11:44:48.888Z,64.10
2018-05-24T11:47:16.214Z,64.20
2018-05-24T11:49:42.503Z,66.50
2018-05-24T11:52:08.813Z,62.90
2018-05-24T11:54:35.083Z,61.90
2018-05-24T11:57:01.365Z,61.60
2018-05-24T11:59:27.633Z,61.40
2018-05-24T12:01:54.672Z,59.80
2018-05-24T12:04:20.974Z,59.80
2018-05-24T12:06:47.264Z,60.00
2018-05-24T12:09:13.647Z,61.60
2018-05-24T12:11:39.981Z,60.50
2018-05-24T12:14:07.203Z,63.00
2018-05-24T12:16:33.525Z,62.20
2018-05-24T12:18:59.862Z,62.10
2018-05-24T12:21:26.276Z,62.50
2018-05-24T12:23:52.641Z,64.10
2018-05-24T12:26:18.947Z,62.10
2018-05-24T12:28:46.269Z,64.50
2018-05-24T12:31:13.565Z,64.10
2018-05-24T12:33:39.891Z,62.30
2018-05-24T12:36:06.288Z,63.20
2018-05-24T12:38:33.168Z,62.00
2018-05-24T12:40:59.605Z,63.30
2018-05-24T12:43:25.971Z,63.50
2018-05-24T12:45:52.658Z,61.90
2018-05-24T12:48:19.405Z,63.10
2018-05-24T12:50:46.147Z,64.40
2018-05-24T12:53:12.575Z,67.30
2018-05-24T12:55:39.819Z,64.10
2018-05-24T12:58:06.119Z,64.50
2018-05-24T13:00:32.909Z,64.20
2018-05-24T13:02:59.858Z,64.20
2018-05-24T13:05:27.109Z,65.80
2018-05-24T13:07:55.432Z,63.50
2018-05-24T13:10:22.563Z,61.30
2018-05-24T13:12:48.945Z,61.10
2018-05-24T13:15:16.047Z,61.50
2018-05-24T13:17:42.363Z,61.40
2018-05-24T13:20:08.927Z,64.10
2018-05-24T13:22:36.255Z,65.00
2018-05-24T13:25:03.399Z,65.20
2018-05-24T13:27:29.859Z,65.20
2018-05-24T13:29:57.056Z,67.10
2018-05-24T13:32:24.475Z,64.30
2018-05-24T13:34:50.823Z,64.40
2018-05-24T13:37:18.004Z,63.90
2018-05-24T13:39:45.784Z,63.90
2018-05-24T13:42:12.985Z,66.10
2018-05-24T13:44:39.363Z,67.60
2018-05-24T13:47:05.763Z,66.20
2018-05-24T13:49:32.903Z,64.30
2018-05-24T13:52:00.010Z,64.30
2018-05-24T13:54:27.725Z,64.90
2018-05-24T13:56:55.275Z,62.10
2018-05-24T13:59:23.479Z,62.10
2018-05-24T14:01:49.930Z,64.40
2018-05-24T14:04:16.283Z,65.80
2018-05-24T14:06:42.550Z,65.20
2018-05-24T14:09:09.701Z,64.90
2018-05-24T14:11:36.051Z,64.70
2018-05-24T14:14:02.379Z,64.90
2018-05-24T14:16:28.687Z,65.80
2018-05-24T14:18:55.111Z,65.10
2018-05-24T14:21:21.379Z,63.60
2018-05-24T14:23:47.672Z,63.60
2018-05-24T14:26:14.057Z,65.50
2018-05-24T14:28:40.337Z,65.20
2018-05-24T14:31:06.641Z,66.10
2018-05-24T14:33:32.918Z,67.40
2018-05-24T14:35:59.925Z,67.10
2018-05-24T14:38:26.193Z,67.20
2018-05-24T14:40:53.219Z,66.60
2018-05-24T14:43:19.622Z,66.60
2018-05-24T14:45:45.911Z,67.10
2018-05-24T14:48:12.964Z,71.50
2018-05-24T14:50:39.273Z,71.70
2018-05-24T14:53:06.309Z,74.60
2018-05-24T14:55:32.613Z,74.50
2018-05-24T14:57:58.951Z,75.00
2018-05-24T15:00:25.357Z,76.50
2018-05-24T15:02:51.647Z,77.40
2018-05-24T15:05:18.754Z,79.20
2018-05-24T15:07:44.996Z,79.20
2018-05-24T15:10:11.295Z,79.00
2018-05-24T15:12:37.561Z,79.80
2018-05-24T15:15:03.887Z,80.70
2018-05-24T15:17:30.158Z,81.90
2018-05-24T15:19:57.199Z,84.70
2018-05-24T15:22:24.246Z,86.80
2018-05-24T15:24:51.273Z,89.40
2018-05-24T15:27:21.300Z,89.40
2018-05-24T15:29:47.585Z,92.50
2018-05-24T15:32:13.878Z,99.10
2018-05-24T15:34:40.971Z,99.90
2018-05-24T15:37:07.715Z,99.90
2018-05-24T15:39:34.005Z,99.90
2018-05-24T15:42:01.038Z,99.90
2018-05-24T15:44:28.149Z,99.90
2018-05-24T15:46:54.449Z,99.90
2018-05-24T15:49:20.788Z,99.90
2018-05-24T15:51:47.081Z,99.90
2018-05-24T15:54:13.400Z,99.90
2018-05-24T15:56:40.430Z,99.90
2018-05-24T15:59:06.783Z,99.90
2018-05-24T16:01:33.091Z,99.90
2018-05-24T16:03:59.424Z,99.90
2018-05-24T16:06:25.718Z,99.90
2018-05-24T16:08:52.017Z,99.90
2018-05-24T16:11:18.307Z,99.90
2018-05-24T16:13:44.621Z,99.90
2018-05-24T16:16:10.942Z,99.90
2018-05-24T16:18:37.264Z,99.90
2018-05-24T16:21:03.570Z,99.90
2018-05-24T16:23:30.625Z,99.90
2018-05-24T16:25:56.932Z,99.90
2018-05-24T16:28:23.299Z,99.90
2018-05-24T16:30:49.592Z,99.90
2018-05-24T16:33:15.921Z,99.90
2018-05-24T16:35:42.216Z,99.90
2018-05-24T16:38:08.510Z,99.90
2018-05-24T16:40:34.809Z,99.90
2018-05-24T16:43:01.128Z,99.90
2018-05-24T16:45:27.503Z,99.90
2018-05-24T16:47:54.541Z,99.90
2018-05-24T16:50:21.589Z,99.90
2018-05-24T16:52:48.625Z,99.90
2018-05-24T16:55:14.953Z,99.90
2018-05-24T16:57:41.275Z,99.90
2018-05-24T17:00:07.576Z,99.90
2018-05-24T17:02:33.893Z,99.90
2018-05-24T17:05:00.201Z,99.90
2018-05-24T17:07:26.518Z,99.90
2018-05-24T17:09:53.563Z,99.90
2018-05-24T17:12:20.623Z,99.90
2018-05-24T17:14:46.919Z,99.90
2018-05-24T17:17:13.235Z,99.90
2018-05-24T17:19:39.627Z,99.90
2018-05-24T17:22:05.929Z,99.90
2018-05-24T17:24:32.225Z,99.90
2018-05-24T17:26:58.536Z,99.90
2018-05-24T17:29:25.129Z,99.90
2018-05-24T17:31:52.187Z,99.90
2018-05-24T17:34:19.278Z,99.90
2018-05-24T17:36:45.626Z,99.90
2018-05-24T17:39:11.910Z,99.90
2018-05-24T17:41:38.950Z,99.90
2018-05-24T17:44:06.015Z,99.90
2018-05-24T17:46:32.354Z,99.90
2018-05-24T17:48:58.656Z,99.90
2018-05-24T17:51:25.750Z,99.90
2018-05-24T18:03:40.785Z,99.90
2018-05-24T18:06:10.474Z,99.90
2018-05-24T18:08:36.845Z,99.90
2018-05-24T18:11:03.216Z,99.90
2018-05-24T18:13:30.372Z,99.90
2018-05-24T18:15:57.445Z,99.90
2018-05-24T18:18:23.819Z,99.90
2018-05-24T18:20:51.958Z,99.90
2018-05-24T18:23:18.329Z,99.90
2018-05-24T18:25:45.360Z,99.90
2018-05-24T18:28:11.696Z,99.90
2018-05-24T18:30:37.993Z,99.90
2018-05-24T18:33:04.398Z,99.90
2018-05-24T18:35:30.787Z,99.90
2018-05-24T18:37:58.155Z,99.90
2018-05-24T18:40:24.504Z,99.90
2018-05-24T18:42:50.910Z,99.90
2018-05-24T18:45:17.235Z,99.90
2018-05-24T18:47:46.821Z,99.90
2018-05-24T18:50:13.111Z,99.90
2018-05-24T18:52:40.184Z,99.90
2018-05-24T18:55:06.597Z,99.90
2018-05-24T18:57:34.717Z,99.90
2018-05-24T19:00:01.115Z,99.90
2018-05-24T19:02:28.236Z,99.90
2018-05-24T19:04:55.350Z,99.90
2018-05-24T19:07:22.087Z,99.90
2018-05-24T19:09:48.556Z,99.90
2018-05-24T19:12:14.877Z,99.90
2018-05-24T19:14:41.173Z,99.90
2018-05-24T19:17:09.045Z,99.90
2018-05-24T19:19:35.394Z,99.90
2018-05-24T19:22:01.727Z,99.90
2018-05-24T19:24:28.067Z,99.90
2018-05-24T19:26:55.095Z,99.90
2018-05-24T19:29:21.477Z,99.90
2018-05-24T19:31:48.542Z,99.90
2018-05-24T19:34:15.487Z,99.90
2018-05-24T19:36:42.969Z,99.90
2018-05-24T19:39:09.309Z,99.90
2018-05-24T19:41:35.655Z,99.90
2018-05-24T19:44:02.009Z,99.90
2018-05-24T19:46:28.339Z,99.90
2018-05-24T19:48:54.678Z,99.90
2018-05-24T19:51:20.996Z,99.90
2018-05-24T19:53:47.347Z,99.90
2018-05-24T19:56:13.700Z,99.90
2018-05-24T19:58:40.041Z,99.90
2018-05-24T20:01:06.584Z,99.90
2018-05-24T20:03:32.916Z,99.90
2018-05-24T20:05:59.439Z,99.90
2018-05-24T20:08:25.824Z,99.90
2018-05-24T20:10:52.190Z,99.90
2018-05-24T20:13:19.325Z,99.90
2018-05-24T20:15:47.400Z,99.90
2018-05-24T20:18:14.540Z,99.90
2018-05-24T20:20:40.933Z,99.90
2018-05-24T20:23:08.503Z,99.90
2018-05-24T20:25:34.928Z,99.90
2018-05-24T20:28:01.309Z,99.90
2018-05-24T20:30:28.549Z,99.90
2018-05-24T20:32:55.020Z,99.90
2018-05-24T20:35:21.348Z,99.90
2018-05-24T20:37:47.681Z,99.90
2018-05-24T20:40:14.981Z,99.90
2018-05-24T20:42:41.359Z,99.90
2018-05-24T20:45:09.407Z,99.90
2018-05-24T20:47:35.697Z,99.90
2018-05-24T20:50:02.044Z,99.90
2018-05-24T20:52:28.395Z,99.90
2018-05-24T20:54:54.762Z,99.90
2018-05-24T20:57:24.861Z,99.90
2018-05-24T20:59:51.937Z,99.90
2018-05-24T21:02:18.262Z,99.90
2018-05-24T21:04:45.297Z,99.90
2018-05-24T21:07:11.618Z,99.90
2018-05-24T21:09:37.926Z,99.90
2018-05-24T21:12:04.383Z,99.90
2018-05-24T21:14:31.466Z,99.90
2018-05-24T21:16:57.799Z,99.90
2018-05-24T21:19:24.137Z,99.90
2018-05-24T21:21:50.458Z,99.90
2018-05-24T21:24:16.774Z,99.90
2018-05-24T21:26:43.828Z,99.90
2018-05-24T21:29:10.179Z,99.90
2018-05-24T21:31:36.510Z,99.90
2018-05-24T21:34:02.849Z,99.90
2018-05-24T21:36:29.152Z,99.90
2018-05-24T21:38:55.471Z,99.90
2018-05-24T21:41:21.826Z,99.90
2018-05-24T21:43:49.201Z,99.90
2018-05-24T21:46:15.505Z,99.90
2018-05-24T21:48:41.809Z,99.90
2018-05-24T21:51:09.828Z,99.90
2018-05-24T21:53:36.124Z,99.90
2018-05-24T21:56:02.760Z,99.90
2018-05-24T21:58:30.737Z,99.90
2018-05-24T22:00:57.007Z,99.90
2018-05-24T22:03:23.318Z,99.90
2018-05-24T22:05:49.617Z,99.90
2018-05-24T22:08:16.926Z,99.90
2018-05-24T22:10:43.232Z,99.90
2018-05-24T22:13:10.501Z,99.90
2018-05-24T22:15:36.807Z,99.90
2018-05-24T22:18:03.113Z,99.90
2018-05-24T22:20:29.459Z,99.90
2018-05-24T22:22:55.759Z,99.90
2018-05-24T22:25:22.056Z,99.90
2018-05-24T22:27:48.343Z,99.90
2018-05-24T22:30:15.393Z,99.90
2018-05-24T22:32:41.693Z,99.90
2018-05-24T22:35:08.060Z,99.90
2018-05-24T22:37:34.383Z,99.90
2018-05-24T22:40:01.455Z,99.90
2018-05-24T22:42:27.741Z,99.90
2018-05-24T22:44:54.037Z,99.90
2018-05-24T22:47:20.355Z,99.90
2018-05-24T22:49:46.635Z,99.90
2018-05-24T22:52:13.656Z,99.90
2018-05-24T22:54:39.957Z,99.90
2018-05-24T22:57:09.570Z,99.90
2018-05-24T22:59:35.909Z,99.90
2018-05-24T23:02:02.941Z,99.90
2018-05-24T23:04:29.277Z,99.90
2018-05-24T23:06:55.565Z,99.90
2018-05-24T23:09:21.855Z,99.90
2018-05-24T23:11:48.167Z,99.90
2018-05-24T23:14:14.463Z,99.90
2018-05-24T23:16:40.769Z,99.90
2018-05-24T23:19:07.081Z,99.90
2018-05-24T23:21:34.120Z,99.90
2018-05-24T23:24:00.431Z,99.90
2018-05-24T23:26:26.777Z,99.90
2018-05-24T23:28:53.125Z,99.90
2018-05-24T23:31:19.410Z,99.90
2018-05-24T23:33:45.732Z,99.90
2018-05-24T23:36:12.776Z,99.90
2018-05-24T23:38:39.827Z,99.90
2018-05-24T23:41:06.910Z,99.90
2018-05-24T23:43:33.174Z,99.90
2018-05-24T23:45:59.708Z,99.90
2018-05-24T23:48:26.129Z,99.90
2018-05-24T23:50:53.149Z,99.90
2018-05-24T23:53:19.536Z,99.90
2018-05-24T23:55:45.913Z,99.90
2018-05-24T23:58:13.265Z,99.90
